Terminal Aerodrome Forecast
Issued by NWS Twin Cities, MN

Home | Current Version | Previous Version | Text Only | Print | Product List | Glossary Off
Versions: 1 2 3 4 5 6 7 8 9 10 11 12

211
FTUS43 KMPX 211120
TAFEAU
TAF
KEAU 211120Z 2112/2212 32005KT P6SM SCT018
     FM211400 34008KT P6SM SCT025
     FM212300 36007KT P6SM FEW040
     FM220200 02003KT P6SM SKC
     FM220600 VRB02KT P6SM SKC=

USA.gov is the U.S. government's official web portal to all federal, state and local government web resources and services.